createdAt,value
2024-05-09T00:02:24.335Z,11.77
2024-05-09T00:04:54.395Z,13.13
2024-05-09T00:07:24.460Z,13.20
2024-05-09T00:09:57.047Z,13.33
2024-05-09T00:12:27.017Z,13.27
2024-05-09T00:14:57.006Z,13.33
2024-05-09T00:17:27.108Z,16.23
2024-05-09T00:19:57.213Z,14.00
2024-05-09T00:22:27.233Z,16.53
2024-05-09T00:24:59.808Z,15.37
2024-05-09T00:27:29.777Z,16.23
2024-05-09T00:29:59.728Z,15.63
2024-05-09T00:32:29.793Z,15.40
2024-05-09T00:34:59.890Z,15.73
2024-05-09T00:37:29.904Z,15.37
2024-05-09T00:40:02.794Z,15.30
2024-05-09T00:42:32.812Z,16.77
2024-05-09T00:45:02.776Z,17.97
2024-05-09T00:47:33.204Z,16.33
2024-05-09T00:50:05.509Z,14.27
2024-05-09T00:52:37.532Z,16.17
2024-05-09T00:55:11.237Z,15.47
2024-05-09T00:57:42.108Z,17.47
2024-05-09T01:00:22.559Z,16.47
2024-05-09T01:03:00.702Z,15.87
2024-05-09T01:05:32.129Z,16.13
2024-05-09T01:08:02.290Z,17.17
2024-05-09T01:10:36.150Z,16.83
2024-05-09T01:13:07.184Z,15.53
2024-05-09T01:15:37.741Z,16.83
2024-05-09T01:18:10.618Z,17.07
2024-05-09T01:20:44.028Z,18.87
2024-05-09T01:23:18.027Z,20.53
2024-05-09T01:25:48.289Z,17.03
2024-05-09T01:28:18.334Z,15.67
2024-05-09T01:30:48.352Z,18.80
2024-05-09T01:33:18.420Z,16.43
2024-05-09T01:35:48.504Z,16.90
2024-05-09T01:38:21.106Z,16.60
2024-05-09T01:40:51.701Z,18.13
2024-05-09T01:43:21.667Z,17.33
2024-05-09T01:45:51.656Z,17.73
2024-05-09T01:48:21.844Z,19.13
2024-05-09T01:50:51.922Z,18.43
2024-05-09T01:53:24.581Z,16.77
2024-05-09T01:55:54.629Z,17.50
2024-05-09T01:58:24.663Z,16.20
2024-05-09T02:00:54.684Z,18.33
2024-05-09T02:03:24.917Z,18.23
2024-05-09T02:05:55.023Z,20.93
2024-05-09T02:08:27.647Z,17.93
2024-05-09T02:10:57.840Z,19.23
2024-05-09T02:13:27.855Z,19.43
2024-05-09T02:15:57.824Z,18.27
2024-05-09T02:18:27.973Z,18.13
2024-05-09T02:20:58.078Z,17.73
2024-05-09T02:23:30.831Z,19.23
2024-05-09T02:26:00.947Z,18.80
2024-05-09T02:28:30.942Z,18.37
2024-05-09T02:31:00.917Z,18.93
2024-05-09T02:33:31.358Z,19.97
2024-05-09T02:36:01.493Z,20.93
2024-05-09T02:38:31.604Z,20.00
2024-05-09T02:41:01.663Z,21.07
2024-05-09T02:43:29.092Z,21.37
2024-05-09T02:45:59.055Z,21.30
2024-05-09T02:48:26.577Z,20.13
2024-05-09T02:50:56.661Z,21.17
2024-05-09T02:53:24.090Z,20.33
2024-05-09T02:55:56.737Z,21.27
2024-05-09T02:58:24.155Z,19.93
2024-05-09T03:00:54.182Z,22.13
2024-05-09T03:03:21.779Z,19.47
2024-05-09T03:05:51.982Z,22.33
2024-05-09T03:08:19.359Z,23.43
2024-05-09T03:10:49.439Z,22.33
2024-05-09T03:13:19.488Z,23.73
2024-05-09T03:15:49.438Z,20.17
2024-05-09T03:18:17.614Z,21.87
2024-05-09T03:20:47.785Z,22.07
2024-05-09T03:23:15.406Z,22.47
2024-05-09T03:25:45.536Z,22.23
2024-05-09T03:28:12.922Z,18.87
2024-05-09T03:30:45.536Z,19.73
2024-05-09T03:33:15.320Z,19.80
2024-05-09T03:35:46.602Z,22.60
2024-05-09T03:38:17.119Z,21.10
2024-05-09T03:40:45.816Z,22.60
2024-05-09T03:43:16.018Z,22.53
2024-05-09T03:45:51.101Z,21.77
2024-05-09T03:48:18.670Z,19.37
2024-05-09T03:50:48.837Z,21.67
2024-05-09T03:53:16.406Z,25.10
2024-05-09T03:55:46.493Z,25.17
2024-05-09T03:58:14.767Z,23.07
2024-05-09T04:00:44.892Z,23.67
2024-05-09T04:03:15.582Z,25.03
2024-05-09T04:05:46.200Z,23.57
2024-05-09T04:08:13.848Z,24.60
2024-05-09T04:10:44.123Z,25.57
2024-05-09T04:13:11.561Z,23.60
2024-05-09T04:15:41.631Z,23.10
2024-05-09T04:18:09.228Z,25.07
2024-05-09T04:20:42.128Z,20.83
2024-05-09T04:23:12.124Z,23.50
2024-05-09T04:25:45.469Z,22.57
2024-05-09T04:28:13.408Z,21.97
2024-05-09T04:30:43.687Z,23.40
2024-05-09T04:33:13.361Z,24.90
2024-05-09T04:35:48.807Z,22.80
2024-05-09T04:38:16.327Z,23.67
2024-05-09T04:40:46.500Z,26.80
2024-05-09T04:43:18.761Z,22.93
2024-05-09T04:45:48.949Z,23.00
2024-05-09T04:48:17.008Z,22.80
2024-05-09T04:50:49.970Z,24.07
2024-05-09T04:53:17.719Z,23.83
2024-05-09T04:55:48.037Z,23.40
2024-05-09T04:58:15.457Z,24.93
2024-05-09T05:00:45.585Z,24.13
2024-05-09T05:03:15.465Z,25.33
2024-05-09T05:05:47.024Z,25.13
2024-05-09T05:08:18.589Z,24.63
2024-05-09T05:10:50.179Z,25.70
2024-05-09T05:13:20.654Z,27.00
2024-05-09T05:15:53.206Z,28.13
2024-05-09T05:18:20.866Z,31.43
2024-05-09T05:20:51.300Z,32.10
2024-05-09T05:23:22.206Z,34.27
2024-05-09T05:25:53.440Z,34.20
2024-05-09T05:28:21.611Z,36.13
2024-05-09T05:30:51.680Z,37.50
2024-05-09T05:33:19.848Z,37.13
2024-05-09T05:35:50.226Z,39.00
2024-05-09T05:38:17.825Z,39.80
2024-05-09T05:40:50.597Z,40.30
2024-05-09T05:43:18.563Z,43.60
2024-05-09T05:45:48.616Z,45.70
2024-05-09T05:48:17.742Z,44.20
2024-05-09T05:50:48.291Z,47.80
2024-05-09T05:53:15.943Z,48.50
2024-05-09T05:55:46.016Z,51.47
2024-05-09T05:58:16.075Z,50.70
2024-05-09T06:00:46.115Z,51.63
2024-05-09T06:03:14.272Z,48.90
2024-05-09T06:05:45.890Z,51.47
2024-05-09T06:08:13.536Z,48.73
2024-05-09T06:10:43.704Z,48.70
2024-05-09T06:13:12.031Z,42.20
2024-05-09T06:15:44.915Z,39.63
2024-05-09T06:18:12.899Z,37.87
2024-05-09T06:20:44.186Z,34.40
2024-05-09T06:23:12.523Z,36.93
2024-05-09T06:25:43.919Z,36.23
2024-05-09T06:28:11.534Z,35.47
2024-05-09T06:30:42.896Z,31.03
2024-05-09T06:33:15.601Z,32.83
2024-05-09T06:35:46.764Z,30.00
2024-05-09T06:38:14.618Z,26.97
2024-05-09T06:40:45.102Z,27.57
2024-05-09T06:43:12.850Z,27.43
2024-05-09T06:45:42.874Z,28.23
2024-05-09T06:48:10.698Z,26.13
2024-05-09T06:50:44.307Z,25.87
2024-05-09T06:53:13.005Z,23.77
2024-05-09T06:55:43.103Z,24.60
2024-05-09T06:58:10.514Z,23.50
2024-05-09T07:00:42.064Z,22.80
2024-05-09T07:03:11.125Z,23.93
2024-05-09T07:05:45.225Z,23.27
2024-05-09T07:08:13.024Z,23.90
2024-05-09T07:10:43.188Z,22.27
2024-05-09T07:13:10.976Z,23.80
2024-05-09T07:15:41.391Z,22.57
2024-05-09T07:18:10.439Z,22.63
2024-05-09T07:20:40.727Z,23.00
2024-05-09T07:23:12.834Z,23.60
2024-05-09T07:25:43.544Z,22.93
2024-05-09T07:28:11.950Z,23.30
2024-05-09T07:30:42.038Z,26.60
2024-05-09T07:33:09.856Z,26.77
2024-05-09T07:35:40.239Z,25.83
2024-05-09T07:38:07.756Z,25.03
2024-05-09T07:40:41.706Z,25.97
2024-05-09T07:43:11.578Z,24.63
2024-05-09T07:45:50.647Z,24.07
2024-05-09T07:52:38.619Z,23.90
2024-05-09T07:53:46.325Z,21.80
2024-05-09T07:56:23.905Z,21.60
2024-05-09T07:58:52.518Z,19.60
2024-05-09T08:01:24.630Z,19.10
2024-05-09T08:03:52.367Z,19.63
2024-05-09T08:06:22.539Z,21.13
2024-05-09T08:08:49.933Z,23.90
2024-05-09T08:11:25.731Z,20.57
2024-05-09T08:13:53.092Z,20.90
2024-05-09T08:16:23.289Z,17.90
2024-05-09T08:18:50.867Z,17.47
2024-05-09T08:21:21.362Z,20.50
2024-05-09T08:23:48.766Z,21.90
2024-05-09T08:26:18.775Z,21.03
2024-05-09T08:28:48.989Z,21.70
2024-05-09T08:31:19.081Z,20.57
2024-05-09T08:33:47.139Z,20.53
2024-05-09T08:36:17.476Z,21.47
2024-05-09T08:38:44.827Z,21.07
2024-05-09T08:41:16.817Z,23.87
2024-05-09T08:43:45.006Z,24.93
2024-05-09T08:46:18.568Z,23.90
2024-05-09T08:48:47.409Z,23.13
2024-05-09T08:51:17.544Z,23.80
2024-05-09T08:53:44.975Z,24.70
2024-05-09T08:56:14.948Z,25.10
2024-05-09T08:58:42.680Z,24.20
2024-05-09T09:01:13.220Z,25.30
2024-05-09T09:03:44.385Z,27.17
2024-05-09T09:06:15.669Z,29.47
2024-05-09T09:08:43.262Z,31.07
2024-05-09T09:11:13.468Z,27.83
2024-05-09T09:13:40.879Z,28.00
2024-05-09T09:16:11.151Z,26.47
2024-05-09T09:18:39.054Z,27.53
2024-05-09T09:21:13.245Z,27.13
2024-05-09T09:23:40.616Z,28.33
2024-05-09T09:26:10.762Z,27.10
2024-05-09T09:28:38.175Z,28.30
2024-05-09T09:31:08.339Z,27.30
2024-05-09T09:33:36.490Z,27.47
2024-05-09T09:36:08.312Z,29.57
2024-05-09T09:38:40.411Z,29.88
2024-05-09T09:41:11.157Z,28.17
2024-05-09T09:43:40.677Z,26.77
2024-05-09T09:46:12.853Z,25.50
2024-05-09T09:48:40.987Z,24.40
2024-05-09T09:51:11.754Z,23.87
2024-05-09T09:53:42.886Z,22.60
2024-05-09T09:56:13.534Z,22.47
2024-05-09T09:58:40.941Z,23.20
2024-05-09T10:01:10.983Z,22.90
2024-05-09T10:03:38.592Z,24.00
2024-05-09T10:06:09.272Z,21.70
2024-05-09T10:08:37.070Z,24.97
2024-05-09T10:11:09.937Z,24.93
2024-05-09T10:13:37.395Z,22.02
2024-05-09T10:16:11.835Z,22.97
2024-05-09T10:18:39.986Z,21.47
2024-05-09T10:21:19.053Z,21.20
2024-05-09T10:23:57.412Z,22.27
2024-05-09T10:26:35.873Z,22.63
2024-05-09T10:29:11.362Z,21.37
2024-05-09T10:31:42.096Z,24.57
2024-05-09T10:34:17.063Z,21.73
2024-05-09T10:36:47.092Z,24.07
2024-05-09T10:39:14.548Z,23.33
2024-05-09T10:41:47.169Z,22.63
2024-05-09T10:44:15.413Z,21.92
2024-05-09T10:46:45.482Z,22.83
2024-05-09T10:49:14.449Z,23.93
2024-05-09T10:51:44.845Z,22.73
2024-05-09T10:54:12.254Z,22.70
2024-05-09T10:56:42.289Z,22.47
2024-05-09T10:59:13.417Z,22.60
2024-05-09T11:01:43.816Z,20.77
2024-05-09T11:04:11.422Z,20.13
2024-05-09T11:06:41.854Z,20.73
2024-05-09T11:09:09.273Z,21.50
2024-05-09T11:11:39.319Z,21.55
2024-05-09T11:14:15.037Z,20.20
2024-05-09T11:16:45.018Z,20.17
2024-05-09T11:19:13.850Z,20.27
2024-05-09T11:21:44.021Z,20.85
2024-05-09T11:24:11.890Z,20.47
2024-05-09T11:26:42.043Z,20.98
2024-05-09T11:29:09.444Z,20.17
2024-05-09T11:31:50.827Z,21.17
2024-05-09T11:34:18.354Z,19.83
2024-05-09T11:36:48.470Z,21.45
2024-05-09T11:39:16.005Z,22.92
2024-05-09T11:41:45.966Z,22.75
2024-05-09T11:44:13.383Z,22.90
2024-05-09T11:46:43.433Z,24.45
2024-05-09T11:49:13.666Z,21.47
2024-05-09T11:51:43.933Z,23.40
2024-05-09T11:54:11.368Z,22.57
2024-05-09T11:56:41.389Z,22.53
2024-05-09T11:59:08.757Z,23.52
2024-05-09T12:01:38.857Z,23.20
2024-05-09T12:04:06.662Z,23.13
2024-05-09T12:06:39.514Z,26.63
2024-05-09T12:09:06.992Z,26.53
2024-05-09T12:11:37.197Z,26.60
2024-05-09T12:14:04.670Z,27.70
2024-05-09T12:16:34.740Z,24.70
2024-05-09T12:19:02.344Z,24.58
2024-05-09T12:21:32.457Z,25.40
2024-05-09T12:24:02.518Z,27.33
2024-05-09T12:26:32.589Z,26.33
2024-05-09T12:29:00.074Z,26.60
2024-05-09T12:31:30.487Z,26.37
2024-05-09T12:34:00.293Z,27.17
2024-05-09T12:36:30.472Z,28.58
2024-05-09T12:38:57.880Z,26.03
2024-05-09T12:41:30.817Z,28.33
2024-05-09T12:43:58.220Z,25.53
2024-05-09T12:46:28.518Z,29.33
2024-05-09T12:48:56.313Z,25.90
2024-05-09T12:51:26.464Z,26.83
2024-05-09T12:53:53.835Z,27.90
2024-05-09T12:56:23.947Z,26.83
2024-05-09T12:58:54.077Z,27.55
2024-05-09T13:01:24.171Z,29.23
2024-05-09T13:03:51.860Z,27.10
2024-05-09T13:06:22.148Z,29.17
2024-05-09T13:08:49.527Z,26.57
2024-05-09T13:11:19.569Z,26.73
2024-05-09T13:13:47.022Z,28.02
2024-05-09T13:16:19.859Z,25.92
2024-05-09T13:18:47.437Z,28.15
2024-05-09T13:21:17.519Z,28.27
2024-05-09T13:23:44.938Z,26.67
2024-05-09T13:26:15.082Z,25.65
2024-05-09T13:28:42.443Z,23.50
2024-05-09T13:31:12.416Z,23.85
2024-05-09T13:33:42.604Z,23.80
2024-05-09T13:36:12.756Z,24.35
2024-05-09T13:38:40.150Z,22.48
2024-05-09T13:41:11.547Z,21.08
2024-05-09T13:43:39.064Z,20.45
2024-05-09T13:46:09.269Z,22.35
2024-05-09T13:48:36.730Z,23.98
2024-05-09T13:51:09.518Z,21.55
2024-05-09T13:53:36.865Z,22.48
2024-05-09T13:56:08.644Z,21.80
2024-05-09T13:58:36.096Z,22.15
2024-05-09T14:01:06.168Z,21.13
2024-05-09T14:03:34.286Z,21.55
2024-05-09T14:06:04.482Z,22.48
2024-05-09T14:08:34.535Z,23.00
2024-05-09T14:11:04.550Z,20.38
2024-05-09T14:13:31.932Z,19.08
2024-05-09T14:16:02.404Z,16.33
2024-05-09T14:18:30.078Z,14.82
2024-05-09T14:21:00.108Z,13.98
2024-05-09T14:23:27.499Z,11.73
2024-05-09T14:26:00.070Z,13.57
2024-05-09T14:28:27.948Z,11.35
2024-05-09T14:31:01.225Z,12.35
2024-05-09T14:33:30.579Z,14.73
2024-05-09T14:36:00.758Z,14.70
2024-05-09T14:38:28.303Z,14.88
2024-05-09T14:41:00.972Z,16.77
2024-05-09T14:43:28.421Z,16.05
2024-05-09T14:45:59.349Z,16.27
2024-05-09T14:48:27.030Z,15.15
2024-05-09T14:50:57.217Z,16.20
2024-05-09T14:53:26.406Z,15.93
2024-05-09T14:55:57.160Z,15.15
2024-05-09T14:58:27.359Z,15.52
2024-05-09T15:00:57.481Z,15.82
2024-05-09T15:03:24.971Z,16.48
2024-05-09T15:05:55.171Z,14.65
2024-05-09T15:08:22.770Z,16.50
2024-05-09T15:10:53.131Z,15.93
2024-05-09T15:13:21.617Z,15.75
2024-05-09T15:15:54.747Z,14.75
2024-05-09T15:18:22.373Z,15.05
2024-05-09T15:20:52.538Z,14.75
2024-05-09T15:23:20.597Z,13.35
2024-05-09T15:25:50.596Z,12.73
2024-05-09T15:28:18.624Z,12.25
2024-05-09T15:30:48.815Z,11.95
2024-05-09T15:33:19.101Z,11.88
2024-05-09T15:35:49.885Z,12.20
2024-05-09T15:38:18.451Z,11.18
2024-05-09T15:40:48.844Z,11.43
2024-05-09T15:43:16.663Z,12.68
2024-05-09T15:45:47.017Z,10.57
2024-05-09T15:48:14.863Z,10.80
2024-05-09T15:50:47.725Z,11.05
2024-05-09T15:53:15.365Z,10.68
2024-05-09T15:55:45.678Z,10.27
2024-05-09T15:58:13.392Z,11.02
2024-05-09T16:00:46.326Z,9.32
2024-05-09T16:03:15.826Z,8.30
2024-05-09T16:05:49.101Z,9.05
2024-05-09T16:08:17.031Z,8.30
2024-05-09T16:10:48.026Z,8.43
2024-05-09T16:13:16.501Z,10.02
2024-05-09T16:15:47.164Z,8.45
2024-05-09T16:18:14.723Z,8.57
2024-05-09T16:20:47.225Z,8.88
2024-05-09T16:23:19.244Z,8.02
2024-05-09T16:25:51.631Z,8.98
2024-05-09T16:28:19.396Z,7.60
2024-05-09T16:30:50.241Z,8.43
2024-05-09T16:33:20.827Z,9.07
2024-05-09T16:35:51.231Z,8.50
2024-05-09T16:38:21.286Z,7.65
2024-05-09T16:40:51.394Z,8.45
2024-05-09T16:43:19.121Z,8.93
2024-05-09T16:45:49.462Z,12.20
2024-05-09T16:48:17.318Z,8.77
2024-05-09T16:50:47.445Z,10.68
2024-05-09T16:53:17.442Z,9.93
2024-05-09T16:55:47.749Z,9.55
2024-05-09T16:58:17.891Z,9.73
2024-05-09T17:00:45.490Z,10.05
2024-05-09T17:03:16.895Z,11.35
2024-05-09T17:05:46.425Z,11.15
2024-05-09T17:08:18.536Z,10.98
2024-05-09T17:10:49.834Z,10.63
2024-05-09T17:13:20.731Z,10.38
2024-05-09T17:15:51.800Z,12.57
2024-05-09T17:18:19.428Z,13.40
2024-05-09T17:20:50.275Z,10.70
2024-05-09T17:23:17.815Z,11.48
2024-05-09T17:25:47.863Z,11.40
2024-05-09T17:28:18.054Z,11.02
2024-05-09T17:30:48.440Z,10.35
2024-05-09T17:33:16.015Z,12.45
2024-05-09T17:35:50.096Z,10.20
2024-05-09T17:38:17.794Z,10.38
2024-05-09T17:40:47.786Z,9.73
2024-05-09T17:43:15.279Z,10.77
2024-05-09T17:45:48.095Z,10.13
2024-05-09T17:48:17.881Z,9.30
2024-05-09T17:50:47.939Z,9.68
2024-05-09T17:53:15.805Z,11.77
2024-05-09T17:55:45.922Z,9.73
2024-05-09T17:58:13.642Z,9.73
2024-05-09T18:00:44.053Z,9.17
2024-05-09T18:03:15.052Z,9.95
2024-05-09T18:05:45.577Z,9.65
2024-05-09T18:08:13.900Z,10.05
2024-05-09T18:10:44.419Z,11.60
2024-05-09T18:13:12.687Z,9.50
2024-05-09T18:15:42.921Z,10.30
2024-05-09T18:18:10.975Z,9.35
2024-05-09T18:20:45.903Z,8.90
2024-05-09T18:23:15.770Z,10.23
2024-05-09T18:25:47.773Z,11.15
2024-05-09T18:28:16.112Z,11.13
2024-05-09T18:30:46.721Z,10.20
2024-05-09T18:33:14.410Z,9.05
2024-05-09T18:35:47.464Z,10.18
2024-05-09T18:38:15.025Z,10.18
2024-05-09T18:40:48.518Z,9.05
2024-05-09T18:43:17.439Z,11.23
2024-05-09T18:45:48.034Z,10.00
2024-05-09T18:48:16.220Z,9.02
2024-05-09T18:50:48.974Z,9.65
2024-05-09T18:53:16.497Z,8.98
2024-05-09T18:55:46.450Z,9.23
2024-05-09T18:58:13.863Z,9.23
2024-05-09T19:00:46.626Z,9.45
2024-05-09T19:03:16.776Z,9.32
2024-05-09T19:05:49.800Z,10.25
2024-05-09T19:08:17.405Z,11.85
2024-05-09T19:10:47.921Z,8.88
2024-05-09T19:13:15.745Z,9.00
2024-05-09T19:15:45.896Z,9.13
2024-05-09T19:18:14.384Z,8.80
2024-05-09T19:20:45.135Z,8.93
2024-05-09T19:23:15.315Z,9.75
2024-05-09T19:25:45.349Z,9.02
2024-05-09T19:28:12.841Z,10.80
2024-05-09T19:30:43.443Z,9.93
2024-05-09T19:33:12.982Z,9.97
2024-05-09T19:35:44.195Z,12.73
2024-05-09T19:38:12.073Z,10.88
2024-05-09T19:40:44.909Z,10.90
2024-05-09T19:43:12.527Z,12.70
2024-05-09T19:45:43.489Z,10.07
2024-05-09T19:48:11.219Z,12.67
2024-05-09T19:50:44.121Z,10.60
2024-05-09T19:53:13.031Z,10.47
2024-05-09T19:55:46.002Z,11.80
2024-05-09T19:58:13.643Z,9.97
2024-05-09T20:00:44.794Z,9.57
2024-05-09T20:03:13.321Z,11.03
2024-05-09T20:05:45.390Z,11.80
2024-05-09T20:08:13.434Z,13.23
2024-05-09T20:10:46.115Z,12.30
2024-05-09T20:13:13.975Z,13.70
2024-05-09T20:15:44.081Z,11.33
2024-05-09T20:18:11.687Z,10.07
2024-05-09T20:20:43.988Z,10.60
2024-05-09T20:23:12.939Z,10.93
2024-05-09T20:25:45.730Z,9.83
2024-05-09T20:28:13.506Z,11.13
2024-05-09T20:30:43.768Z,10.23
2024-05-09T20:33:12.412Z,11.77
2024-05-09T20:35:42.650Z,10.57
2024-05-09T20:38:10.031Z,9.87
2024-05-09T20:40:40.284Z,9.97
2024-05-09T20:43:11.060Z,9.90
2024-05-09T20:45:41.466Z,9.37
2024-05-09T20:48:09.830Z,9.80
2024-05-09T20:50:42.195Z,11.50
2024-05-09T20:53:11.265Z,8.60
2024-05-09T20:55:41.504Z,10.47
2024-05-09T20:58:12.000Z,9.63
2024-05-09T21:00:44.884Z,9.98
2024-05-09T21:03:14.795Z,10.03
2024-05-09T21:05:46.771Z,11.73
2024-05-09T21:08:14.790Z,10.93
2024-05-09T21:10:44.911Z,12.33
2024-05-09T21:13:15.193Z,11.50
2024-05-09T21:15:45.363Z,11.37
2024-05-09T21:18:12.992Z,11.37
2024-05-09T21:20:42.996Z,11.37
2024-05-09T21:23:10.370Z,12.40
2024-05-09T21:25:40.359Z,12.03
2024-05-09T21:28:07.978Z,12.27
2024-05-09T21:30:42.873Z,12.13
2024-05-09T21:33:12.951Z,12.07
2024-05-09T21:35:44.933Z,13.93
2024-05-09T21:38:13.902Z,12.20
2024-05-09T21:40:44.756Z,13.13
2024-05-09T21:43:12.813Z,13.30
2024-05-09T21:45:45.554Z,16.08
2024-05-09T21:48:13.463Z,13.30
2024-05-09T21:50:43.775Z,15.00
2024-05-09T21:53:11.890Z,13.23
2024-05-09T21:55:42.505Z,13.27
2024-05-09T21:58:10.515Z,13.47
2024-05-09T22:00:42.794Z,13.37
2024-05-09T22:03:15.713Z,14.53
2024-05-09T22:05:44.976Z,16.43
2024-05-09T22:08:15.382Z,15.43
2024-05-09T22:10:42.984Z,17.43
2024-05-09T22:13:13.257Z,15.10
2024-05-09T22:15:41.102Z,15.27
2024-05-09T22:18:12.052Z,17.40
2024-05-09T22:20:45.234Z,17.57
2024-05-09T22:23:16.278Z,15.47
2024-05-09T22:25:43.784Z,16.73
2024-05-09T22:28:16.013Z,17.17
2024-05-09T22:30:45.996Z,16.50
2024-05-09T22:33:16.528Z,17.87
2024-05-09T22:35:47.963Z,18.23
2024-05-09T22:38:17.962Z,19.73
2024-05-09T22:40:48.659Z,17.80
2024-05-09T22:43:23.059Z,18.00
2024-05-09T22:45:52.223Z,20.93
2024-05-09T22:48:23.384Z,20.27
2024-05-09T22:50:53.729Z,17.97
2024-05-09T22:53:25.038Z,18.27
2024-05-09T22:55:52.843Z,20.47
2024-05-09T22:58:23.604Z,19.27
2024-05-09T23:00:51.419Z,21.10
2024-05-09T23:03:22.775Z,19.97
2024-05-09T23:05:53.191Z,20.23
2024-05-09T23:08:23.152Z,20.17
2024-05-09T23:10:51.001Z,18.93
2024-05-09T23:13:21.290Z,18.37
2024-05-09T23:15:49.034Z,18.03
2024-05-09T23:18:19.151Z,19.47
2024-05-09T23:20:46.603Z,19.67
2024-05-09T23:23:19.224Z,19.07
2024-05-09T23:25:46.633Z,19.20
2024-05-09T23:28:16.643Z,20.00
2024-05-09T23:30:44.091Z,19.50
2024-05-09T23:33:15.017Z,19.30
2024-05-09T23:35:43.990Z,20.73
2024-05-09T23:38:14.489Z,22.87
2024-05-09T23:40:44.658Z,19.43
2024-05-09T23:43:15.140Z,18.60
2024-05-09T23:45:42.951Z,19.93
2024-05-09T23:48:13.837Z,20.07
2024-05-09T23:50:41.805Z,20.17
2024-05-09T23:53:11.966Z,19.23
2024-05-09T23:55:39.695Z,21.33
2024-05-09T23:58:12.512Z,19.53
